Machine Overzicht

Generator events en service beheer USB: 6D25E01206 ×
Records
88
van 353,749
Machines
1
Starts
10
Warnings
7
25 resultaten · pagina 3 van 4
Dubbelklik service uren om te bewerken
ID Machine Gebeurtenis Tijd Uren Service Status USB ID
370019 30-010 A Engine Stopped 19-01-2026 11:20:39 5,105 500 OVER BEURT URGENT! 6D25E01206
370015 30-010 A Battery Voltage 19-01-2026 11:20:19 5,105 500 OVER BEURT URGENT! 6D25E01206
370017 30-010 A Engine Stopped 19-01-2026 11:19:39 5,105 500 OVER BEURT URGENT! 6D25E01206
326141 30-010 A Generator Over Current Warning 14-11-2025 09:32:44 4,767 500 OVER BEURT URGENT! 6D25E01206
326140 30-010 A Engine Start 14-11-2025 09:27:25 4,767 500 OVER BEURT URGENT! 6D25E01206
326131 30-010 A Engine Stopped 14-11-2025 09:15:40 4,767 500 OVER BEURT URGENT! 6D25E01206
326132 30-010 A kW Overload Alarm Electrical Trip 14-11-2025 09:15:33 4,767 500 OVER BEURT URGENT! 6D25E01206
326124 30-010 A Battery Voltage 14-11-2025 08:37:43 4,766 500 OVER BEURT URGENT! 6D25E01206
326123 30-010 A Engine Stopped 14-11-2025 08:37:39 4,766 500 OVER BEURT URGENT! 6D25E01206
325481 30-010 A Engine Stopped 11-11-2025 06:55:17 4,766 500 OVER BEURT URGENT! 6D25E01206
325482 30-010 A Battery Voltage 11-11-2025 06:54:46 4,766 500 OVER BEURT URGENT! 6D25E01206
313117 30-010 A Engine Stopped 30-09-2025 20:18:38 4,766 500 OVER BEURT URGENT! 6D25E01206
309449 30-010 A Low Fuel Level Warning 07-09-2025 13:16:27 4,207 500 OVER BEURT URGENT! 6D25E01206
278282 30-010 A Emergency Stop Shutdown 30-12-2024 15:08:08 3,686 500 OVER BEURT URGENT! 6D25E01206
278281 30-010 A Engine Stopped 30-12-2024 15:07:34 3,686 500 OVER BEURT URGENT! 6D25E01206
267531 30-010 A Engine Stopped 27-11-2024 21:27:49 3,686 500 OVER BEURT URGENT! 6D25E01206
267025 30-010 A Engine Stopped 25-11-2024 17:04:35 3,661 500 OVER BEURT URGENT! 6D25E01206
265364 30-010 A Battery Voltage 20-11-2024 16:36:37 3,619 500 OVER BEURT URGENT! 6D25E01206
265357 30-010 A Engine Stopped 20-11-2024 15:55:14 3,619 500 OVER BEURT URGENT! 6D25E01206
264473 30-010 A Engine Stopped 14-11-2024 18:07:10 3,571 500 OVER BEURT URGENT! 6D25E01206
264341 30-010 A Engine Stopped 13-11-2024 18:09:48 3,563 500 OVER BEURT URGENT! 6D25E01206
264139 30-010 A Engine Stopped 12-11-2024 15:49:10 3,552 500 OVER BEURT URGENT! 6D25E01206
264107 30-010 A Low Fuel Level Warning 12-11-2024 15:02:31 3,551 500 OVER BEURT URGENT! 6D25E01206
263881 30-010 A Battery Voltage 11-11-2024 16:19:31 3,540 500 OVER BEURT URGENT! 6D25E01206
263596 30-010 A Battery Voltage 09-11-2024 08:55:34 3,522 500 OVER BEURT URGENT! 6D25E01206
51–75 van 88